createdAt,value
2019-05-23T00:01:12.822Z,100653.89
2019-05-23T00:04:25.501Z,100655.69
2019-05-23T00:07:18.006Z,100657.40
2019-05-23T00:10:08.986Z,100653.70
2019-05-23T00:13:10.342Z,100662.30
2019-05-23T00:15:47.360Z,100659.41
2019-05-23T00:18:21.506Z,100653.55
2019-05-23T00:20:53.817Z,100654.91
2019-05-23T00:23:25.792Z,100654.27
2019-05-23T00:25:57.753Z,100654.12
2019-05-23T00:28:29.818Z,100653.60
2019-05-23T00:31:12.479Z,100660.17
2019-05-23T00:33:44.369Z,100657.62
2019-05-23T00:36:17.629Z,100663.03
2019-05-23T00:38:50.183Z,100664.16
2019-05-23T00:41:24.029Z,100660.61
2019-05-23T00:43:56.428Z,100662.52
2019-05-23T00:46:29.341Z,100661.16
2019-05-23T00:49:01.735Z,100657.54
2019-05-23T00:51:35.392Z,100666.09
2019-05-23T00:54:09.301Z,100671.20
2019-05-23T00:56:42.100Z,100666.30
2019-05-23T00:59:26.480Z,100671.42
2019-05-23T01:01:49.511Z,100675.70
2019-05-23T01:04:22.239Z,100676.97
2019-05-23T01:06:54.226Z,100682.38
2019-05-23T01:09:26.930Z,100684.45
2019-05-23T01:11:59.999Z,100677.47
2019-05-23T01:14:32.653Z,100689.38
2019-05-23T01:17:07.508Z,100686.44
2019-05-23T01:19:40.380Z,100676.52
2019-05-23T01:22:12.744Z,100682.09
2019-05-23T01:24:46.830Z,100685.99
2019-05-23T01:27:19.935Z,100685.59
2019-05-23T01:29:53.593Z,100690.20
2019-05-23T01:32:39.313Z,100689.14
2019-05-23T01:35:13.734Z,100694.72
2019-05-23T01:37:47.603Z,100691.09
2019-05-23T01:40:20.139Z,100686.40
2019-05-23T01:42:53.440Z,100689.38
2019-05-23T01:45:25.242Z,100685.77
2019-05-23T01:47:58.269Z,100689.23
2019-05-23T01:50:30.628Z,100695.71
2019-05-23T01:53:03.078Z,100702.93
2019-05-23T01:55:35.308Z,100699.94
2019-05-23T01:58:07.692Z,100698.68
2019-05-23T02:00:40.344Z,100697.30
2019-05-23T02:03:12.799Z,100700.30
2019-05-23T02:05:45.208Z,100702.59
2019-05-23T02:08:18.370Z,100703.28
2019-05-23T02:10:50.241Z,100707.22
2019-05-23T02:13:23.285Z,100707.06
2019-05-23T02:15:55.152Z,100710.55
2019-05-23T02:18:28.501Z,100713.22
2019-05-23T02:21:00.544Z,100707.95
2019-05-23T02:23:32.487Z,100715.23
2019-05-23T02:26:04.919Z,100715.06
2019-05-23T02:28:37.252Z,100706.13
2019-05-23T02:31:09.635Z,100714.97
2019-05-23T02:33:41.861Z,100714.48
2019-05-23T02:36:13.824Z,100712.75
2019-05-23T02:38:55.620Z,100721.39
2019-05-23T02:41:49.229Z,100722.96
2019-05-23T02:44:23.141Z,100722.48
2019-05-23T02:47:05.193Z,100729.60
2019-05-23T02:49:37.845Z,100732.11
2019-05-23T02:52:23.394Z,100729.27
2019-05-23T02:54:57.095Z,100725.19
2019-05-23T02:57:30.582Z,100732.06
2019-05-23T03:00:27.134Z,100731.13
2019-05-23T03:03:02.833Z,100739.45
2019-05-23T03:05:37.517Z,100736.02
2019-05-23T03:08:12.770Z,100736.98
2019-05-23T03:11:09.885Z,100734.11
2019-05-23T03:13:41.961Z,100732.11
2019-05-23T03:16:19.659Z,100732.50
2019-05-23T03:18:58.158Z,100736.38
2019-05-23T03:21:31.056Z,100738.28
2019-05-23T03:24:04.780Z,100738.89
2019-05-23T03:27:00.587Z,100744.00
2019-05-23T03:29:34.652Z,100737.17
2019-05-23T03:32:36.901Z,100738.89
2019-05-23T03:35:30.634Z,100738.02
2019-05-23T03:38:03.898Z,100734.17
2019-05-23T03:40:36.636Z,100742.52
2019-05-23T03:43:09.562Z,100741.52
2019-05-23T03:45:47.748Z,100740.08
2019-05-23T03:48:20.862Z,100732.69
2019-05-23T03:50:55.107Z,100736.17
2019-05-23T03:53:28.865Z,100743.38
2019-05-23T03:56:01.423Z,100739.77
2019-05-23T03:58:33.706Z,100744.11
2019-05-23T04:01:07.979Z,100749.75
2019-05-23T04:03:40.731Z,100750.22
2019-05-23T04:06:14.013Z,100750.95
2019-05-23T04:08:45.876Z,100749.80
2019-05-23T04:11:18.017Z,100751.57
2019-05-23T04:13:50.012Z,100752.66
2019-05-23T04:16:23.054Z,100760.36
2019-05-23T04:18:55.896Z,100766.44
2019-05-23T04:21:27.747Z,100768.63
2019-05-23T04:23:59.551Z,100766.55
2019-05-23T04:26:31.343Z,100765.20
2019-05-23T04:29:03.175Z,100763.20
2019-05-23T04:31:35.325Z,100764.36
2019-05-23T04:34:07.151Z,100767.27
2019-05-23T04:36:38.935Z,100762.65
2019-05-23T04:39:10.926Z,100771.52
2019-05-23T04:41:42.903Z,100770.27
2019-05-23T04:44:15.505Z,100766.66
2019-05-23T04:46:47.385Z,100773.92
2019-05-23T04:49:19.361Z,100777.47
2019-05-23T04:51:51.593Z,100778.56
2019-05-23T04:54:23.660Z,100775.38
2019-05-23T04:56:56.601Z,100775.38
2019-05-23T04:59:28.472Z,100782.91
2019-05-23T05:02:00.849Z,100783.48
2019-05-23T05:04:32.860Z,100783.91
2019-05-23T05:07:05.097Z,100790.66
2019-05-23T05:09:37.193Z,100788.41
2019-05-23T05:12:09.549Z,100795.08
2019-05-23T05:14:41.351Z,100807.66
2019-05-23T05:17:13.606Z,100803.77
2019-05-23T05:19:45.481Z,100807.12
2019-05-23T05:22:17.016Z,100813.00
2019-05-23T05:24:48.850Z,100822.56
2019-05-23T05:27:21.241Z,100825.42
2019-05-23T05:29:53.180Z,100818.52
2019-05-23T05:32:42.883Z,100826.30
2019-05-23T05:34:58.810Z,100828.17
2019-05-23T05:37:30.679Z,100841.64
2019-05-23T05:40:02.889Z,100839.30
2019-05-23T05:42:36.173Z,100840.82
2019-05-23T05:45:09.341Z,100842.54
2019-05-23T05:47:41.526Z,100844.42
2019-05-23T05:50:14.944Z,100846.33
2019-05-23T05:52:46.821Z,100840.97
2019-05-23T05:55:18.889Z,100846.14
2019-05-23T05:57:50.757Z,100846.14
2019-05-23T06:00:48.017Z,100847.91
2019-05-23T06:03:19.941Z,100847.85
2019-05-23T06:06:15.710Z,100855.92
2019-05-23T06:08:49.805Z,100859.19
2019-05-23T06:11:21.719Z,100852.73
2019-05-23T06:13:54.184Z,100860.27
2019-05-23T06:16:26.339Z,100862.30
2019-05-23T06:18:59.443Z,100861.23
2019-05-23T06:21:31.322Z,100863.37
2019-05-23T06:24:03.652Z,100867.87
2019-05-23T06:26:35.455Z,100875.37
2019-05-23T06:29:07.347Z,100867.56
2019-05-23T06:31:40.173Z,100871.16
2019-05-23T06:34:12.964Z,100871.92
2019-05-23T06:36:44.931Z,100879.53
2019-05-23T06:39:16.841Z,100882.25
2019-05-23T06:41:48.892Z,100884.79
2019-05-23T06:44:20.935Z,100886.87
2019-05-23T06:46:52.810Z,100899.72
2019-05-23T06:49:24.684Z,100896.16
2019-05-23T06:51:56.542Z,100892.23
2019-05-23T06:54:28.478Z,100893.72
2019-05-23T06:57:00.582Z,100900.28
2019-05-23T06:59:32.482Z,100895.80
2019-05-23T07:02:05.575Z,100899.94
2019-05-23T07:04:37.559Z,100898.94
2019-05-23T07:07:11.528Z,100903.23
2019-05-23T07:09:43.370Z,100901.20
2019-05-23T07:12:15.535Z,100901.52
2019-05-23T07:14:47.497Z,100891.23
2019-05-23T07:17:19.820Z,100901.95
2019-05-23T07:19:51.764Z,100891.68
2019-05-23T07:22:23.968Z,100898.59
2019-05-23T07:24:58.526Z,100897.23
2019-05-23T13:10:05.166Z,100954.54
2019-05-23T13:12:37.500Z,100957.79
2019-05-23T13:15:09.649Z,100957.26
2019-05-23T13:17:41.453Z,100956.27
2019-05-23T13:20:13.820Z,100955.91
2019-05-23T13:22:45.675Z,100958.83
2019-05-23T13:25:17.917Z,100951.19
2019-05-23T13:27:49.762Z,100943.48
2019-05-23T13:30:21.829Z,100962.91
2019-05-23T13:32:53.813Z,100956.61
2019-05-23T13:35:26.362Z,100952.36
2019-05-23T13:37:58.371Z,100948.08
2019-05-23T13:40:30.225Z,100957.83
2019-05-23T13:43:06.798Z,100963.09
2019-05-23T13:45:35.812Z,100967.69
2019-05-23T13:48:07.673Z,100966.33
2019-05-23T13:50:39.941Z,100967.84
2019-05-23T13:53:12.763Z,100964.77
2019-05-23T18:53:07.519Z,101001.77
2019-05-23T18:55:40.258Z,101008.56
2019-05-23T18:58:12.233Z,101006.41
2019-05-23T19:01:14.216Z,101011.72
2019-05-23T19:03:46.364Z,101005.40
2019-05-23T19:06:18.282Z,101006.41
2019-05-23T19:08:51.034Z,101012.20
2019-05-23T19:11:23.307Z,101015.23
2019-05-23T19:13:55.208Z,101019.38
2019-05-23T19:16:28.636Z,101014.73
2019-05-23T19:19:01.351Z,101017.63
2019-05-23T19:21:34.185Z,101011.95
2019-05-23T19:24:06.470Z,101013.39
2019-05-23T19:26:39.328Z,101017.05
2019-05-23T19:29:11.302Z,101007.20
2019-05-23T19:31:44.096Z,101009.55
2019-05-23T19:34:16.464Z,101003.78
2019-05-23T19:36:49.382Z,101002.42
2019-05-23T19:39:22.490Z,101004.13
2019-05-23T19:41:54.449Z,101005.14
2019-05-23T19:44:26.372Z,101002.58
2019-05-23T19:46:58.269Z,101004.78
2019-05-23T19:49:30.180Z,100998.72
2019-05-23T19:52:01.971Z,100996.57
2019-05-23T19:54:33.808Z,100995.89
2019-05-23T19:57:05.619Z,100997.89
2019-05-23T19:59:37.481Z,101003.19
2019-05-23T20:02:24.785Z,100996.94
2019-05-23T20:05:05.742Z,100997.88
2019-05-23T20:07:37.837Z,101004.62
2019-05-23T20:10:11.115Z,100999.02
2019-05-23T20:12:45.343Z,100997.45
2019-05-23T20:15:17.297Z,100997.50
2019-05-23T20:17:51.651Z,101000.41
2019-05-23T20:20:23.115Z,101003.78
2019-05-23T20:22:55.073Z,101001.71
2019-05-23T20:25:27.115Z,101000.30
2019-05-23T20:27:58.907Z,100997.82
2019-05-23T20:30:51.643Z,100994.64
2019-05-23T20:33:23.611Z,100996.95
2019-05-23T20:35:55.507Z,100992.22
2019-05-23T20:38:27.765Z,100989.31
2019-05-23T20:40:59.724Z,100988.66
2019-05-23T20:43:31.596Z,100988.66
2019-05-23T20:46:03.445Z,100987.95
2019-05-23T20:48:35.629Z,100992.69
2019-05-23T20:51:07.582Z,100994.86
2019-05-23T20:53:39.716Z,100990.56
2019-05-23T20:56:11.568Z,100997.70
2019-05-23T20:58:43.417Z,100998.23
2019-05-23T21:01:29.818Z,101006.05
2019-05-23T21:04:02.624Z,101014.40
2019-05-23T21:06:34.629Z,101016.44
2019-05-23T21:09:08.145Z,101008.55
2019-05-23T21:11:39.986Z,101004.77
2019-05-23T21:14:11.841Z,100999.20
2019-05-23T21:16:43.701Z,101002.83
2019-05-23T21:19:15.495Z,101003.19
2019-05-23T21:21:47.365Z,101002.66
2019-05-23T21:24:19.438Z,100999.37
2019-05-23T21:26:52.077Z,101003.89
2019-05-23T21:29:24.047Z,101008.68
2019-05-23T21:31:55.916Z,101008.68
2019-05-23T21:34:27.768Z,101005.38
2019-05-23T21:36:59.625Z,101005.90
2019-05-23T21:39:31.482Z,101000.47
2019-05-23T21:42:03.800Z,101013.34
2019-05-23T21:44:35.656Z,101011.13
2019-05-23T21:47:10.457Z,101009.80
2019-05-23T21:49:42.414Z,101011.70
2019-05-23T21:52:14.344Z,101017.01
2019-05-23T21:54:46.133Z,101018.20
2019-05-23T21:57:17.926Z,101018.84
2019-05-23T21:59:49.815Z,101018.30
2019-05-23T22:02:30.510Z,101020.42
2019-05-23T22:05:16.221Z,101027.38
2019-05-23T22:07:48.068Z,101024.34
2019-05-23T22:10:19.867Z,101020.86
2019-05-23T22:13:04.040Z,101020.55
2019-05-23T22:15:37.562Z,101028.16
2019-05-23T22:18:09.409Z,101017.91
2019-05-23T22:20:41.267Z,101020.58
2019-05-23T22:23:14.308Z,101013.44
2019-05-23T22:25:46.174Z,101011.95
2019-05-23T22:28:18.096Z,101020.63
2019-05-23T22:30:49.934Z,101012.53
2019-05-23T22:33:23.764Z,101017.87
2019-05-23T22:35:55.624Z,101021.36
2019-05-23T22:38:27.476Z,101013.92
2019-05-23T22:40:59.272Z,101019.41
2019-05-23T22:43:31.198Z,101009.11
2019-05-23T22:46:03.048Z,101007.48
2019-05-23T22:48:34.912Z,101003.44
2019-05-23T22:51:06.763Z,101007.23
2019-05-23T22:53:38.611Z,101007.23
2019-05-23T22:56:10.475Z,100999.39
2019-05-23T22:58:42.307Z,101003.52
2019-05-23T23:01:14.291Z,101003.52
2019-05-23T23:03:46.174Z,101000.28
2019-05-23T23:06:18.720Z,101003.37
2019-05-23T23:08:51.583Z,101003.63
2019-05-23T23:11:23.719Z,101003.63
2019-05-23T23:13:55.773Z,100994.41
2019-05-23T23:16:27.618Z,101001.12
2019-05-23T23:18:59.584Z,101001.03
2019-05-23T23:21:31.635Z,101001.03
2019-05-23T23:24:03.408Z,101006.02
2019-05-23T23:26:35.378Z,101004.77
2019-05-23T23:29:07.541Z,100998.79
2019-05-23T23:31:39.519Z,101003.84
2019-05-23T23:34:11.577Z,101000.77
2019-05-23T23:36:43.357Z,101004.68
2019-05-23T23:39:15.211Z,101004.72
2019-05-23T23:41:47.075Z,101007.94
2019-05-23T23:44:20.824Z,101009.98
2019-05-23T23:47:10.302Z,101008.16
2019-05-23T23:49:59.428Z,101010.66
2019-05-23T23:52:48.832Z,101009.09
2019-05-23T23:55:38.138Z,101008.91
2019-05-23T23:58:09.428Z,101012.89
